Aphrodite — WDI9057 — position and weather

sailwx.info

Track history (hours):
 
Tides and Currents Weather Stations Pressure Air Temp Water Temp Dewpoint Dewpoint Depression Visibility Wind Speed Wind Dir Waves Ship Positions

Aphrodite

Owner: McMunn, Richard W, Mystic, CT. More information available from US FCC via Universal Licensing System and Coast Guard Vessel Documentation Center.

Last reported at 2017-Nov-22 20:45 UTC. Time now 2017-Nov-23 05:38 UTC.
Position N 17°04' W 061°40'.

Length 15 m.

Type: Sailing vessel. MMSI: 367744820.

Date/timePositionNaut miles runAvg speedWind from/ knotsBaromVisibWave heightAir tempDewpointWater temp
2017-Nov-22 20:45N 17°04' W 061°40'1 2.8
2017-Nov-22 20:30N 17°04' W 061°40'2 4.9
2017-Nov-22 20:00N 17°02' W 061°41'3 5.5
2017-Nov-22 19:30N 17°00' W 061°44'  
2017-Nov-18 13:52N 17°01' W 061°46'0 0.0
2017-Nov-18 13:28N 17°01' W 061°46'  
2017-Nov-15 13:40N 17°01' W 061°46'0 0.4
2017-Nov-15 13:30N 17°01' W 061°46'2 3.0
2017-Nov-15 13:00N 17°00' W 061°48'4 7.4
2017-Nov-15 12:30N 16°59' W 061°52'4 7.7
2017-Nov-15 12:00N 16°59' W 061°56'4 7.6
2017-Nov-15 11:28N 16°58' W 061°60'4 7.5
2017-Nov-15 11:00N 16°57' W 062°03'8 6.9
2017-Nov-15 09:50N 16°56' W 062°12'  
Track history (hours):
 
Tides and Currents Weather Stations Pressure Air Temp Water Temp Dewpoint Dewpoint Depression Visibility Wind Speed Wind Dir Waves Ship Positions

Aphrodite

Owner: McMunn, Richard W, Mystic, CT. More information available from US FCC via Universal Licensing System and Coast Guard Vessel Documentation Center.

Last reported at 2017-Nov-22 20:45 UTC. Time now 2017-Nov-23 05:38 UTC.
Position N 17°04' W 061°40'.

Length 15 m.

Type: Sailing vessel. MMSI: 367744820.

Date/timePositionNaut miles runAvg speedWind from/ knotsBaromVisibWave heightAir tempDewpointWater temp
2017-Nov-22 20:45N 17°04' W 061°40'1 2.8
2017-Nov-22 20:30N 17°04' W 061°40'2 4.9
2017-Nov-22 20:00N 17°02' W 061°41'3 5.5
2017-Nov-22 19:30N 17°00' W 061°44'  
2017-Nov-18 13:52N 17°01' W 061°46'0 0.0
2017-Nov-18 13:28N 17°01' W 061°46'  
2017-Nov-15 13:40N 17°01' W 061°46'0 0.4
2017-Nov-15 13:30N 17°01' W 061°46'2 3.0
2017-Nov-15 13:00N 17°00' W 061°48'4 7.4
2017-Nov-15 12:30N 16°59' W 061°52'4 7.7
2017-Nov-15 12:00N 16°59' W 061°56'4 7.6
2017-Nov-15 11:28N 16°58' W 061°60'4 7.5
2017-Nov-15 11:00N 16°57' W 062°03'8 6.9
2017-Nov-15 09:50N 16°56' W 062°12'  

Dump ship's entire track history